createdAt,value
2022-12-10T00:01:20.532Z,90.39
2022-12-10T00:03:47.776Z,90.57
2022-12-10T00:06:17.503Z,90.36
2022-12-10T00:08:44.034Z,90.81
2022-12-10T00:11:13.006Z,90.57
2022-12-10T00:13:39.855Z,90.28
2022-12-10T00:16:09.050Z,90.40
2022-12-10T00:18:36.188Z,90.31
2022-12-10T00:21:07.810Z,90.67
2022-12-10T00:23:34.441Z,90.52
2022-12-10T00:26:11.827Z,90.18
2022-12-10T00:28:38.959Z,90.28
2022-12-10T00:31:06.254Z,90.57
2022-12-10T00:33:32.851Z,90.39
2022-12-10T00:36:07.398Z,90.38
2022-12-10T00:38:34.252Z,90.63
2022-12-10T00:41:01.050Z,90.14
2022-12-10T00:43:27.863Z,90.30
2022-12-10T00:45:54.916Z,90.38
2022-12-10T00:48:22.106Z,90.49
2022-12-10T00:51:03.396Z,90.62
2022-12-10T00:53:31.867Z,90.63
2022-12-10T00:55:58.624Z,90.69
2022-12-10T00:58:28.369Z,90.72
2022-12-10T01:00:55.069Z,90.56
2022-12-10T01:03:21.588Z,91.02
2022-12-10T01:05:47.973Z,91.00
2022-12-10T01:08:14.359Z,90.62
2022-12-10T01:10:40.765Z,90.85
2022-12-10T01:13:07.127Z,91.15
2022-12-10T01:15:38.327Z,91.19
2022-12-10T01:18:04.810Z,91.39
2022-12-10T01:20:31.169Z,91.34
2022-12-10T01:22:57.511Z,91.56
2022-12-10T01:25:23.898Z,91.44
2022-12-10T01:27:50.242Z,91.62
2022-12-10T01:30:16.714Z,91.36
2022-12-10T01:32:43.079Z,91.65
2022-12-10T01:35:09.441Z,91.61
2022-12-10T01:37:35.796Z,91.75
2022-12-10T01:40:02.179Z,91.69
2022-12-10T01:42:28.642Z,91.79
2022-12-10T01:45:00.077Z,91.47
2022-12-10T01:47:26.559Z,91.67
2022-12-10T01:49:53.042Z,91.85
2022-12-10T01:52:19.579Z,91.72
2022-12-10T01:54:47.308Z,91.58
2022-12-10T01:57:17.337Z,91.46
2022-12-10T01:59:46.139Z,91.50
2022-12-10T02:02:22.568Z,91.88
2022-12-10T02:05:10.721Z,91.64
2022-12-10T02:07:52.391Z,91.59
2022-12-10T02:10:57.823Z,91.81
2022-12-10T02:13:33.680Z,92.07
2022-12-10T02:16:08.193Z,92.05
2022-12-10T02:18:48.843Z,91.85
2022-12-10T02:21:25.187Z,91.86
2022-12-10T02:24:04.363Z,92.10
2022-12-10T02:26:56.914Z,92.24
2022-12-10T02:29:29.058Z,92.15
2022-12-10T02:32:10.546Z,92.16
2022-12-10T02:34:43.397Z,92.17
2022-12-10T02:37:25.070Z,92.35
2022-12-10T02:39:55.712Z,92.28
2022-12-10T02:42:25.308Z,92.27
2022-12-10T02:44:54.768Z,92.23
2022-12-10T02:47:21.747Z,92.09
2022-12-10T02:49:51.104Z,92.16
2022-12-10T02:52:20.575Z,92.18
2022-12-10T02:54:49.251Z,92.55
2022-12-10T02:57:36.248Z,92.36
2022-12-10T03:00:09.303Z,92.33
2022-12-10T03:02:56.060Z,92.19
2022-12-10T03:05:36.760Z,92.50
2022-12-10T03:08:11.235Z,92.36
2022-12-10T03:10:52.025Z,92.36
2022-12-10T03:13:22.748Z,92.52
2022-12-10T03:15:51.829Z,92.40
2022-12-10T03:18:23.613Z,92.30
2022-12-10T03:20:53.441Z,92.55
2022-12-10T03:23:20.790Z,92.46
2022-12-10T03:25:51.435Z,92.13
2022-12-10T03:28:20.626Z,92.47
2022-12-10T03:30:48.770Z,92.45
2022-12-10T03:33:16.220Z,92.54
2022-12-10T03:35:42.617Z,92.48
2022-12-10T03:38:09.575Z,92.70
2022-12-10T03:40:36.455Z,92.37
2022-12-10T03:43:02.952Z,92.53
2022-12-10T03:45:29.321Z,92.43
2022-12-10T03:47:55.902Z,92.36
2022-12-10T03:50:22.286Z,92.45
2022-12-10T03:52:48.664Z,92.62
2022-12-10T03:55:15.173Z,92.82
2022-12-10T03:57:41.697Z,92.35
2022-12-10T04:00:09.110Z,92.60
2022-12-10T04:02:35.711Z,92.87
2022-12-10T04:05:02.069Z,92.68
2022-12-10T04:07:28.460Z,92.86
2022-12-10T04:09:55.009Z,92.72
2022-12-10T04:12:21.380Z,92.57
2022-12-10T04:15:06.368Z,92.65
2022-12-10T04:17:34.523Z,92.70
2022-12-10T04:20:00.998Z,92.62
2022-12-10T04:22:46.805Z,92.61
2022-12-10T04:25:32.878Z,92.60
2022-12-10T04:27:59.247Z,92.58
2022-12-10T04:30:25.828Z,92.81
2022-12-10T04:32:52.283Z,92.41
2022-12-10T04:35:18.621Z,92.76
2022-12-10T04:37:44.988Z,92.79
2022-12-10T04:40:12.339Z,92.82
2022-12-10T04:42:38.974Z,93.14
2022-12-10T04:45:06.034Z,93.03
2022-12-10T04:47:32.482Z,92.67
2022-12-10T04:49:58.842Z,92.89
2022-12-10T04:52:25.196Z,92.72
2022-12-10T04:54:51.561Z,93.16
2022-12-10T04:57:17.948Z,92.85
2022-12-10T04:59:44.324Z,92.84
2022-12-10T05:02:10.821Z,93.22
2022-12-10T05:04:37.444Z,92.72
2022-12-10T05:07:04.000Z,93.10
2022-12-10T05:09:30.482Z,93.17
2022-12-10T05:11:56.892Z,93.07
2022-12-10T05:14:23.540Z,93.34
2022-12-10T05:16:52.185Z,92.98
2022-12-10T05:19:20.588Z,92.88
2022-12-10T05:22:05.520Z,93.12
2022-12-10T05:24:32.021Z,93.24
2022-12-10T05:26:58.649Z,93.14
2022-12-10T05:29:25.051Z,92.92
2022-12-10T05:31:51.577Z,93.28
2022-12-10T05:34:17.932Z,93.10
2022-12-10T05:36:44.322Z,93.38
2022-12-10T05:39:11.518Z,92.99
2022-12-10T05:41:39.987Z,93.19
2022-12-10T05:44:07.297Z,93.19
2022-12-10T05:46:35.056Z,93.31
2022-12-10T05:49:05.178Z,93.10
2022-12-10T05:51:33.656Z,93.03
2022-12-10T05:54:02.466Z,93.33
2022-12-10T05:56:28.867Z,93.21
2022-12-10T05:58:59.164Z,93.38
2022-12-10T06:01:28.331Z,93.66
2022-12-10T06:03:54.962Z,93.36
2022-12-10T06:06:26.701Z,93.32
2022-12-10T06:08:53.854Z,93.40
2022-12-10T06:11:20.423Z,93.42
2022-12-10T06:13:51.718Z,93.09
2022-12-10T06:16:21.552Z,93.26
2022-12-10T06:18:47.968Z,93.23
2022-12-10T06:21:16.419Z,93.11
2022-12-10T06:23:44.216Z,93.23
2022-12-10T06:26:20.130Z,93.01
2022-12-10T06:28:47.484Z,92.92
2022-12-10T06:31:14.817Z,93.13
2022-12-10T06:33:41.660Z,92.99
2022-12-10T06:36:10.056Z,93.05
2022-12-10T06:38:37.306Z,93.04
2022-12-10T06:41:09.075Z,93.66
2022-12-10T06:43:35.723Z,93.21
2022-12-10T06:46:09.067Z,93.29
2022-12-10T06:48:36.425Z,93.43
2022-12-10T06:51:04.583Z,93.10
2022-12-10T06:53:35.138Z,93.62
2022-12-10T06:56:02.496Z,93.01
2022-12-10T06:58:30.142Z,93.29
2022-12-10T07:01:10.385Z,93.14
2022-12-10T07:03:37.692Z,92.98
2022-12-10T07:06:05.995Z,93.00
2022-12-10T07:08:32.464Z,93.28
2022-12-10T07:10:59.257Z,93.50
2022-12-10T07:13:30.464Z,93.03
2022-12-10T07:15:57.532Z,92.87
2022-12-10T07:18:23.980Z,92.85
2022-12-10T07:20:50.340Z,92.99
2022-12-10T07:23:16.689Z,93.14
2022-12-10T07:25:43.189Z,92.80
2022-12-10T07:28:09.636Z,93.17
2022-12-10T07:30:36.235Z,93.21
2022-12-10T07:33:02.591Z,92.83
2022-12-10T07:35:29.062Z,92.93
2022-12-10T07:37:55.480Z,92.83
2022-12-10T07:40:21.924Z,92.55
2022-12-10T07:42:48.301Z,92.99
2022-12-10T07:45:14.773Z,92.77
2022-12-10T07:47:41.196Z,92.99
2022-12-10T07:50:08.289Z,92.83
2022-12-10T07:52:34.828Z,92.72
2022-12-10T07:55:01.379Z,92.94
2022-12-10T07:57:29.654Z,93.04
2022-12-10T07:59:56.036Z,92.80
2022-12-10T08:02:22.401Z,92.60
2022-12-10T08:04:48.819Z,92.80
2022-12-10T08:07:15.249Z,92.85
2022-12-10T08:09:41.752Z,92.52
2022-12-10T08:12:08.110Z,92.47
2022-12-10T08:14:34.530Z,92.70
2022-12-10T08:17:00.871Z,92.74
2022-12-10T08:19:31.692Z,92.66
2022-12-10T08:21:58.499Z,92.77
2022-12-10T08:24:24.912Z,92.83
2022-12-10T08:26:51.320Z,92.67
2022-12-10T08:29:17.776Z,92.86
2022-12-10T08:31:44.207Z,92.96
2022-12-10T08:34:17.303Z,92.86
2022-12-10T08:36:44.937Z,93.02
2022-12-10T08:39:16.036Z,92.68
2022-12-10T08:41:43.831Z,92.60
2022-12-10T08:44:11.027Z,92.78
2022-12-10T08:46:37.529Z,92.79
2022-12-10T08:49:04.914Z,93.11
2022-12-10T08:51:31.268Z,92.83
2022-12-10T08:53:57.698Z,93.05
2022-12-10T08:56:24.096Z,93.13
2022-12-10T08:58:50.450Z,93.11
2022-12-10T09:01:18.919Z,92.81
2022-12-10T09:03:46.238Z,93.02
2022-12-10T09:06:16.458Z,92.96
2022-12-10T09:08:42.940Z,93.18
2022-12-10T09:11:13.171Z,92.91
2022-12-10T09:13:39.817Z,92.75
2022-12-10T09:16:06.865Z,92.88
2022-12-10T09:18:33.698Z,93.05
2022-12-10T09:21:00.134Z,92.86
2022-12-10T09:23:26.560Z,92.71
2022-12-10T09:25:52.938Z,92.99
2022-12-10T09:28:19.322Z,93.18
2022-12-10T09:30:45.663Z,93.02
2022-12-10T09:33:12.411Z,93.00
2022-12-10T09:35:42.147Z,93.08
2022-12-10T09:38:09.103Z,92.87
2022-12-10T09:40:43.983Z,92.84
2022-12-10T09:43:18.954Z,92.77
2022-12-10T09:46:11.706Z,93.10
2022-12-10T09:48:56.207Z,92.92
2022-12-10T09:51:26.360Z,93.30
2022-12-10T09:53:59.358Z,93.05
2022-12-10T09:56:32.678Z,92.74
2022-12-10T09:59:02.466Z,93.25
2022-12-10T10:01:30.978Z,93.14
2022-12-10T10:03:57.449Z,92.92
2022-12-10T10:06:25.302Z,93.08
2022-12-10T10:08:58.745Z,92.99
2022-12-10T10:11:30.204Z,93.04
2022-12-10T10:14:02.030Z,93.20
2022-12-10T10:16:46.312Z,93.18
2022-12-10T10:19:18.892Z,93.17
2022-12-10T10:21:50.747Z,92.89
2022-12-10T10:24:20.796Z,93.21
2022-12-10T10:26:47.552Z,93.03
2022-12-10T10:29:17.307Z,92.67
2022-12-10T10:31:44.553Z,92.76
2022-12-10T10:34:18.792Z,92.99
2022-12-10T10:36:46.078Z,92.66
2022-12-10T10:39:19.508Z,93.13
2022-12-10T10:41:54.463Z,92.86
2022-12-10T10:44:34.722Z,92.73
2022-12-10T10:47:01.286Z,93.17
2022-12-10T10:49:33.235Z,93.15
2022-12-10T10:52:01.931Z,93.11
2022-12-10T10:54:35.010Z,92.89
2022-12-10T10:57:07.144Z,93.02
2022-12-10T10:59:37.296Z,93.30
2022-12-10T11:02:17.729Z,92.83
2022-12-10T11:04:50.971Z,93.15
2022-12-10T11:07:23.446Z,92.69
2022-12-10T11:09:51.181Z,92.81
2022-12-10T11:12:33.073Z,93.05
2022-12-10T11:14:59.632Z,92.88
2022-12-10T11:17:27.667Z,92.99
2022-12-10T11:19:59.130Z,92.73
2022-12-10T11:22:31.180Z,92.69
2022-12-10T11:24:59.239Z,92.77
2022-12-10T11:27:47.614Z,92.55
2022-12-10T11:30:24.310Z,92.54
2022-12-10T11:33:16.466Z,92.58
2022-12-10T11:36:07.479Z,92.45
2022-12-10T11:38:52.388Z,92.88
2022-12-10T11:41:26.479Z,92.65
2022-12-10T11:44:03.555Z,92.72
2022-12-10T11:47:06.597Z,93.10
2022-12-10T11:49:54.969Z,92.75
2022-12-10T11:52:32.931Z,93.08
2022-12-10T11:55:15.463Z,93.01
2022-12-10T11:58:18.642Z,93.01
2022-12-10T12:01:38.489Z,93.11
2022-12-10T12:04:18.914Z,92.76
2022-12-10T12:07:04.226Z,93.01
2022-12-10T12:09:51.536Z,93.13
2022-12-10T12:12:42.240Z,93.11
2022-12-10T12:15:23.226Z,93.21
2022-12-10T12:17:54.931Z,93.15
2022-12-10T12:20:35.515Z,92.68
2022-12-10T12:23:11.089Z,93.23
2022-12-10T12:25:45.295Z,92.88
2022-12-10T12:28:42.410Z,93.20
2022-12-10T12:31:15.740Z,93.08
2022-12-10T12:33:51.375Z,93.18
2022-12-10T12:36:22.413Z,92.82
2022-12-10T12:39:18.226Z,93.00
2022-12-10T12:41:50.248Z,93.21
2022-12-10T12:44:33.242Z,93.41
2022-12-10T12:47:05.688Z,93.25
2022-12-10T12:49:38.754Z,93.23
2022-12-10T12:52:30.524Z,93.52
2022-12-10T12:55:01.968Z,93.43
2022-12-10T12:58:02.207Z,93.18
2022-12-10T13:00:36.808Z,93.11
2022-12-10T13:03:29.030Z,93.10
2022-12-10T13:05:55.900Z,92.94
2022-12-10T13:08:26.236Z,92.96
2022-12-10T13:11:11.648Z,93.13
2022-12-10T13:13:41.456Z,93.05
2022-12-10T13:16:37.946Z,92.94
2022-12-10T13:19:19.703Z,93.05
2022-12-10T13:21:55.834Z,93.32
2022-12-10T13:24:42.120Z,93.27
2022-12-10T13:27:08.766Z,92.88
2022-12-10T13:29:53.439Z,92.73
2022-12-10T13:32:21.667Z,93.35
2022-12-10T13:35:10.644Z,92.77
2022-12-10T13:37:54.901Z,93.37
2022-12-10T13:40:30.374Z,93.20
2022-12-10T13:43:39.071Z,93.34
2022-12-10T13:46:41.347Z,93.06
2022-12-10T13:49:19.013Z,92.93
2022-12-10T13:52:05.894Z,93.36
2022-12-10T13:54:44.547Z,93.07
2022-12-10T13:57:39.642Z,93.26
2022-12-10T14:00:16.288Z,93.25
2022-12-10T14:03:00.959Z,93.58
2022-12-10T14:05:57.357Z,92.88
2022-12-10T14:08:31.651Z,93.48
2022-12-10T14:10:59.755Z,93.30
2022-12-10T14:13:37.032Z,93.25
2022-12-10T14:16:04.220Z,93.48
2022-12-10T14:18:31.500Z,93.44
2022-12-10T14:20:59.028Z,93.58
2022-12-10T14:23:34.194Z,93.35
2022-12-10T14:26:13.154Z,93.55
2022-12-10T14:28:46.296Z,93.50
2022-12-10T14:31:22.979Z,93.70
2022-12-10T14:33:51.243Z,93.63
2022-12-10T14:36:25.609Z,93.66
2022-12-10T14:38:52.331Z,93.92
2022-12-10T14:41:22.178Z,93.42
2022-12-10T14:43:49.402Z,93.77
2022-12-10T14:46:23.400Z,93.77
2022-12-10T14:48:53.383Z,93.57
2022-12-10T14:51:22.604Z,93.64
2022-12-10T14:53:51.088Z,93.88
2022-12-10T14:56:31.559Z,93.90
2022-12-10T14:59:04.072Z,94.07
2022-12-10T15:01:35.564Z,93.84
2022-12-10T15:04:05.393Z,93.75
2022-12-10T15:06:37.554Z,93.84
2022-12-10T15:09:05.940Z,94.01
2022-12-10T15:11:32.909Z,93.99
2022-12-10T15:14:02.350Z,94.02
2022-12-10T15:16:41.667Z,93.78
2022-12-10T15:19:24.662Z,94.15
2022-12-10T15:21:53.475Z,93.89
2022-12-10T15:24:27.580Z,93.85
2022-12-10T15:26:54.873Z,93.79
2022-12-10T15:29:28.430Z,93.76
2022-12-10T15:31:58.435Z,94.03
2022-12-10T15:34:28.845Z,94.12
2022-12-10T15:37:03.346Z,94.11
2022-12-10T15:39:29.731Z,93.95
2022-12-10T15:41:58.502Z,94.14
2022-12-10T15:44:38.873Z,93.75
2022-12-10T15:47:19.284Z,94.20
2022-12-10T15:49:46.815Z,94.14
2022-12-10T15:52:26.382Z,94.27
2022-12-10T15:54:56.399Z,94.41
2022-12-10T15:57:31.957Z,94.30
2022-12-10T16:00:01.061Z,94.18
2022-12-10T16:02:46.262Z,93.91
2022-12-10T16:05:25.119Z,93.89
2022-12-10T16:07:54.781Z,93.97
2022-12-10T16:10:23.788Z,94.12
2022-12-10T16:13:05.728Z,93.86
2022-12-10T16:15:36.807Z,94.19
2022-12-10T16:18:04.844Z,94.18
2022-12-10T16:20:33.336Z,94.18
2022-12-10T16:23:00.186Z,94.66
2022-12-10T16:25:29.899Z,94.09
2022-12-10T16:27:59.111Z,94.15
2022-12-10T16:30:37.792Z,94.23
2022-12-10T16:33:06.527Z,94.38
2022-12-10T16:35:33.059Z,94.24
2022-12-10T16:37:59.749Z,94.19
2022-12-10T16:40:28.712Z,94.49
2022-12-10T16:42:55.958Z,94.66
2022-12-10T16:45:26.924Z,94.59
2022-12-10T16:47:53.708Z,94.24
2022-12-10T16:50:22.185Z,94.68
2022-12-10T16:52:49.263Z,94.49
2022-12-10T16:55:19.089Z,94.62
2022-12-10T16:57:46.933Z,94.69
2022-12-10T17:00:23.370Z,94.26
2022-12-10T17:02:51.030Z,94.36
2022-12-10T17:05:25.294Z,94.16
2022-12-10T17:07:51.853Z,94.27
2022-12-10T17:10:38.347Z,94.11
2022-12-10T17:13:04.885Z,94.51
2022-12-10T17:15:32.523Z,94.43
2022-12-10T17:17:58.898Z,94.46
2022-12-10T17:20:26.939Z,94.62
2022-12-10T17:22:53.368Z,94.29
2022-12-10T17:25:19.808Z,94.27
2022-12-10T17:27:46.250Z,94.80
2022-12-10T17:30:16.709Z,94.55
2022-12-10T17:32:43.810Z,94.89
2022-12-10T17:35:11.194Z,94.44
2022-12-10T17:37:38.915Z,94.60
2022-12-10T17:40:15.834Z,94.59
2022-12-10T17:42:42.339Z,94.83
2022-12-10T17:45:12.028Z,94.78
2022-12-10T17:47:39.321Z,94.75
2022-12-10T17:50:29.655Z,94.62
2022-12-10T17:53:01.257Z,94.94
2022-12-10T17:55:29.339Z,94.69
2022-12-10T17:57:59.148Z,94.74
2022-12-10T18:00:30.588Z,94.85
2022-12-10T18:02:57.221Z,94.75
2022-12-10T18:05:23.598Z,94.60
2022-12-10T18:07:50.132Z,94.82
2022-12-10T18:10:20.216Z,94.87
2022-12-10T18:12:46.854Z,94.57
2022-12-10T18:15:14.418Z,94.85
2022-12-10T18:17:40.890Z,94.87
2022-12-10T18:20:09.286Z,94.84
2022-12-10T18:22:36.589Z,95.00
2022-12-10T18:25:03.432Z,95.22
2022-12-10T18:27:30.211Z,95.09
2022-12-10T18:29:58.084Z,94.82
2022-12-10T18:32:24.456Z,95.27
2022-12-10T18:34:50.903Z,95.48
2022-12-10T18:37:17.389Z,95.72
2022-12-10T18:39:43.773Z,95.23
2022-12-10T18:42:10.130Z,95.46
2022-12-10T18:44:36.525Z,95.51
2022-12-10T18:47:03.063Z,95.26
2022-12-10T18:49:31.661Z,95.46
2022-12-10T18:51:58.135Z,95.27
2022-12-10T18:54:24.516Z,95.31
2022-12-10T18:57:03.538Z,95.22
2022-12-10T18:59:37.596Z,95.52
2022-12-10T19:02:04.033Z,95.65
2022-12-10T19:04:30.412Z,95.72
2022-12-10T19:06:56.774Z,95.31
2022-12-10T19:09:30.714Z,95.53
2022-12-10T19:12:01.683Z,95.67
2022-12-10T19:14:28.054Z,95.79
2022-12-10T19:16:54.541Z,95.40
2022-12-10T19:19:20.949Z,95.28
2022-12-10T19:21:47.593Z,95.58
2022-12-10T19:24:14.868Z,95.38
2022-12-10T19:26:42.914Z,95.40
2022-12-10T19:29:19.898Z,95.80
2022-12-10T19:31:46.901Z,95.40
2022-12-10T19:34:15.495Z,95.66
2022-12-10T19:36:43.020Z,95.59
2022-12-10T19:39:22.318Z,95.47
2022-12-10T19:41:49.373Z,95.56
2022-12-10T19:44:16.211Z,95.04
2022-12-10T19:46:43.460Z,95.47
2022-12-10T19:49:14.768Z,95.83
2022-12-10T19:51:42.146Z,95.46
2022-12-10T19:54:09.746Z,95.08
2022-12-10T19:56:36.471Z,95.60
2022-12-10T19:59:14.628Z,95.36
2022-12-10T20:01:41.734Z,95.51
2022-12-10T20:04:08.192Z,95.13
2022-12-10T20:06:41.029Z,95.26
2022-12-10T20:09:16.717Z,95.30
2022-12-10T20:11:43.166Z,95.21
2022-12-10T20:14:09.647Z,95.20
2022-12-10T20:16:36.098Z,94.64
2022-12-10T20:19:03.529Z,95.15
2022-12-10T20:21:29.993Z,95.32
2022-12-10T20:24:02.643Z,94.91
2022-12-10T20:26:33.181Z,95.29
2022-12-10T20:29:00.282Z,95.08
2022-12-10T20:31:27.501Z,95.46
2022-12-10T20:33:53.884Z,95.09
2022-12-10T20:36:27.656Z,95.17
2022-12-10T20:38:54.423Z,95.05
2022-12-10T20:41:21.972Z,95.04
2022-12-10T20:43:48.914Z,94.93
2022-12-10T20:46:23.454Z,94.97
2022-12-10T20:48:50.683Z,95.17
2022-12-10T20:51:19.311Z,94.94
2022-12-10T20:53:46.921Z,94.88
2022-12-10T20:56:22.286Z,95.00
2022-12-10T20:58:49.894Z,95.23
2022-12-10T21:01:17.157Z,94.87
2022-12-10T21:03:44.255Z,95.02
2022-12-10T21:06:14.776Z,94.88
2022-12-10T21:08:41.902Z,95.37
2022-12-10T21:11:08.335Z,95.45
2022-12-10T21:13:34.791Z,95.27
2022-12-10T21:16:03.010Z,95.19
2022-12-10T21:18:29.756Z,95.43
2022-12-10T21:20:56.994Z,95.46
2022-12-10T21:23:26.653Z,95.34
2022-12-10T21:25:54.535Z,95.51
2022-12-10T21:28:22.135Z,95.60
2022-12-10T21:30:48.985Z,95.37
2022-12-10T21:33:21.171Z,95.20
2022-12-10T21:35:49.189Z,95.25
2022-12-10T21:38:16.675Z,95.57
2022-12-10T21:40:45.681Z,95.30
2022-12-10T21:43:23.644Z,95.43
2022-12-10T21:45:52.004Z,95.45
2022-12-10T21:48:21.543Z,95.82
2022-12-10T21:50:48.641Z,95.35
2022-12-10T21:53:15.794Z,95.33
2022-12-10T21:55:46.342Z,95.11
2022-12-10T21:58:12.779Z,95.05
2022-12-10T22:00:39.233Z,95.38
2022-12-10T22:03:06.145Z,95.35
2022-12-10T22:05:32.872Z,94.97
2022-12-10T22:07:59.344Z,95.58
2022-12-10T22:10:25.830Z,95.41
2022-12-10T22:12:52.183Z,95.25
2022-12-10T22:15:18.806Z,95.10
2022-12-10T22:17:45.171Z,95.46
2022-12-10T22:20:11.892Z,95.34
2022-12-10T22:22:38.243Z,95.27
2022-12-10T22:25:04.997Z,95.25
2022-12-10T22:27:33.206Z,95.47
2022-12-10T22:30:00.531Z,95.30
2022-12-10T22:32:27.463Z,95.25
2022-12-10T22:34:53.949Z,95.33
2022-12-10T22:37:20.309Z,95.52
2022-12-10T22:39:46.812Z,95.47
2022-12-10T22:42:13.301Z,95.52
2022-12-10T22:44:39.752Z,95.66
2022-12-10T22:47:06.168Z,95.53
2022-12-10T22:49:38.605Z,95.61
2022-12-10T22:52:05.436Z,95.75
2022-12-10T22:54:31.930Z,95.67
2022-12-10T22:56:58.357Z,95.92
2022-12-10T22:59:24.808Z,95.63
2022-12-10T23:01:51.206Z,95.53
2022-12-10T23:04:17.576Z,95.56
2022-12-10T23:06:43.939Z,95.89
2022-12-10T23:09:10.558Z,95.71
2022-12-10T23:11:36.938Z,95.42
2022-12-10T23:14:03.341Z,95.86
2022-12-10T23:16:29.980Z,95.33
2022-12-10T23:18:56.505Z,95.62
2022-12-10T23:21:27.320Z,95.63
2022-12-10T23:23:54.426Z,95.79
2022-12-10T23:26:22.025Z,95.62
2022-12-10T23:28:48.794Z,95.88
2022-12-10T23:31:16.632Z,95.74
2022-12-10T23:33:43.161Z,95.82
2022-12-10T23:36:10.416Z,95.64
2022-12-10T23:38:37.530Z,95.66
2022-12-10T23:41:09.031Z,95.82
2022-12-10T23:43:36.102Z,95.90
2022-12-10T23:46:03.015Z,96.08
2022-12-10T23:48:29.652Z,95.42
2022-12-10T23:50:57.788Z,95.89
2022-12-10T23:53:24.274Z,95.77
2022-12-10T23:55:50.726Z,95.67
2022-12-10T23:58:17.599Z,95.88
